Terminal Aerodrome Forecast
Issued by NWS Huntsville, AL

Home | Current Version | Previous Version | Text Only | Print | Product List | Glossary On
Versions: 1 2 3 4 5 6 7 8 9 10 11 12 13 14 15 16 17 18 19 20 21 22 23 24 25 26 27 28 29 30 31
000
FTUS44 KHUN 192328
TAFHSV
TAF
KHSV 192328Z 2000/2024 VRB04KT P6SM VCSH OVC120
     FM200500 VRB03KT 6SM -RA BR OVC040
      TEMPO 2006/2008 4SM -RA BR OVC020
     FM201400 01005KT P6SM SCT040 BKN120=

USA.gov is the U.S. government's official web portal to all federal, state and local government web resources and services.